Time;durP1;ratioP1;P1;durP2;ratioP2;P2;SDS_P1;SDS_P2;PMS_P1;PMS_P2;Temp;Humidity;BMP_temperature;BMP_pressure;BME280_temperature;BME280_humidity;BME280_pressure;Samples;Min_cycle;Max_cycle;Signal;HPM_P1;HPM_P2
2023/07/20 00:00:47;;;;;;;5.67;1.50;;;;;;;;;;5042348;28;20263;-65
2023/07/20 00:03:19;;;;;;;1.73;1.40;;;;;;;;;;5040785;28;20208;-65
2023/07/20 00:05:47;;;;;;;3.07;1.60;;;;;;;;;;5040427;28;20215;-65
2023/07/20 00:08:14;;;;;;;3.83;1.43;;;;;;;;;;5040505;28;20211;-65
2023/07/20 00:10:42;;;;;;;1.60;1.50;;;;;;;;;;5040407;28;20235;-65
2023/07/20 00:13:10;;;;;;;4.10;1.30;;;;;;;;;;5040536;28;20214;-64
2023/07/20 00:15:38;;;;;;;3.23;1.50;;;;;;;;;;5040447;28;20213;-64
2023/07/20 00:18:06;;;;;;;1.30;1.20;;;;;;;;;;5040257;28;20218;-65
2023/07/20 00:20:35;;;;;;;1.63;1.43;;;;;;;;;;5056822;28;20256;-65
2023/07/20 00:23:03;;;;;;;3.33;1.30;;;;;;;;;;5060649;28;20203;-65
2023/07/20 00:25:31;;;;;;;3.63;1.40;;;;;;;;;;5060219;28;20238;-65
2023/07/20 00:27:58;;;;;;;2.40;1.40;;;;;;;;;;5060265;28;20207;-65
2023/07/20 00:30:26;;;;;;;2.10;1.20;;;;;;;;;;5040240;28;20232;-65
2023/07/20 00:32:54;;;;;;;3.13;1.03;;;;;;;;;;5039857;28;20330;-65
2023/07/20 00:35:22;;;;;;;1.73;1.17;;;;;;;;;;5039636;28;20215;-65
2023/07/20 00:37:51;;;;;;;2.60;1.10;;;;;;;;;;5039935;28;20652;-65
2023/07/20 00:40:19;;;;;;;1.30;1.20;;;;;;;;;;5046335;28;20314;-65
2023/07/20 00:42:46;;;;;;;2.97;1.27;;;;;;;;;;5045209;28;20235;-65
2023/07/20 00:45:14;;;;;;;1.87;1.50;;;;;;;;;;5039946;28;20222;-65
2023/07/20 00:47:42;;;;;;;0.73;0.73;;;;;;;;;;5039899;28;20211;-65
2023/07/20 00:50:10;;;;;;;1.40;0.77;;;;;;;;;;5039247;28;20231;-65
2023/07/20 00:52:39;;;;;;;1.53;0.97;;;;;;;;;;5039276;28;20340;-64
2023/07/20 00:55:10;;;;;;;0.83;0.80;;;;;;;;;;5039597;28;20570;-64
2023/07/20 00:57:37;;;;;;;3.23;1.30;;;;;;;;;;5039678;28;20207;-64
2023/07/20 01:00:07;;;;;;;4.90;3.07;;;;;;;;;;5040718;28;20300;-64
2023/07/20 01:02:36;;;;;;;1.73;1.30;;;;;;;;;;5039406;28;20217;-64
2023/07/20 01:05:06;;;;;;;5.43;1.77;;;;;;;;;;5039045;28;20249;-64
2023/07/20 01:07:36;;;;;;;2.00;1.33;;;;;;;;;;5039310;28;20207;-65
2023/07/20 01:10:07;;;;;;;1.47;1.07;;;;;;;;;;5039406;28;20231;-64
2023/07/20 01:12:41;;;;;;;1.47;1.33;;;;;;;;;;5046023;28;20232;-65
2023/07/20 01:15:09;;;;;;;3.83;1.50;;;;;;;;;;5059198;28;20297;-64
2023/07/20 01:17:37;;;;;;;1.47;1.37;;;;;;;;;;5058980;28;20214;-64
2023/07/20 01:20:05;;;;;;;4.40;2.20;;;;;;;;;;5058926;28;20226;-64
2023/07/20 01:22:44;;;;;;;3.57;2.47;;;;;;;;;;5058768;28;20202;-65
2023/07/20 01:25:25;;;;;;;3.13;2.33;;;;;;;;;;5058910;28;20573;-64
2023/07/20 01:28:05;;;;;;;3.33;2.40;;;;;;;;;;5059041;28;20201;-64
2023/07/20 01:30:45;;;;;;;4.43;1.70;;;;;;;;;;5051699;28;20223;-64
2023/07/20 01:33:16;;;;;;;1.17;1.07;;;;;;;;;;5038744;28;20713;-64
2023/07/20 01:35:47;;;;;;;1.00;0.90;;;;;;;;;;5038765;28;20301;-64
2023/07/20 01:38:15;;;;;;;4.57;1.30;;;;;;;;;;5038885;28;20217;-65
2023/07/20 01:40:43;;;;;;;1.70;0.93;;;;;;;;;;5048581;28;20677;-64
2023/07/20 01:43:11;;;;;;;2.37;1.20;;;;;;;;;;5041271;28;20688;-64
2023/07/20 01:45:39;;;;;;;1.27;1.00;;;;;;;;;;5038524;28;20260;-64
2023/07/20 01:48:07;;;;;;;0.80;0.80;;;;;;;;;;5038700;28;20207;-65
2023/07/20 01:50:36;;;;;;;4.33;1.10;;;;;;;;;;5038485;28;20256;-65
2023/07/20 01:53:04;;;;;;;2.90;1.10;;;;;;;;;;5037670;28;20283;-64
2023/07/20 01:55:32;;;;;;;6.93;3.33;;;;;;;;;;5038594;28;20240;-65
2023/07/20 01:58:01;;;;;;;2.07;0.83;;;;;;;;;;5038576;28;20212;-65
2023/07/20 02:00:29;;;;;;;4.20;0.93;;;;;;;;;;5040340;28;20251;-64
2023/07/20 02:02:57;;;;;;;1.90;1.07;;;;;;;;;;5038301;28;20209;-64
2023/07/20 02:05:25;;;;;;;2.47;0.97;;;;;;;;;;5038255;28;20259;-64
2023/07/20 02:07:54;;;;;;;1.97;0.90;;;;;;;;;;5045425;28;20805;-65
2023/07/20 02:10:22;;;;;;;1.60;1.03;;;;;;;;;;5058304;28;20703;-64
2023/07/20 02:12:50;;;;;;;3.17;1.07;;;;;;;;;;5057974;28;20236;-64
2023/07/20 02:15:18;;;;;;;3.50;1.10;;;;;;;;;;5058165;28;20274;-64
2023/07/20 02:17:46;;;;;;;1.90;1.10;;;;;;;;;;5058224;28;20663;-64
2023/07/20 02:20:14;;;;;;;1.00;0.80;;;;;;;;;;5057685;28;20232;-65
2023/07/20 02:22:42;;;;;;;1.27;0.80;;;;;;;;;;5057793;28;20640;-63
2023/07/20 02:25:11;;;;;;;4.93;0.80;;;;;;;;;;5057740;28;20217;-65
2023/07/20 02:27:39;;;;;;;3.90;0.97;;;;;;;;;;5058338;28;20679;-64
2023/07/20 02:30:09;;;;;;;1.10;0.90;;;;;;;;;;5040700;28;20221;-63
2023/07/20 02:32:37;;;;;;;2.30;1.00;;;;;;;;;;5037602;28;20323;-64
2023/07/20 02:35:06;;;;;;;1.37;1.00;;;;;;;;;;5037412;28;20210;-65
2023/07/20 02:37:33;;;;;;;2.00;0.90;;;;;;;;;;5037856;28;20644;-64
2023/07/20 02:40:02;;;;;;;2.37;0.93;;;;;;;;;;5041838;28;20372;-63
2023/07/20 02:42:32;;;;;;;1.57;0.93;;;;;;;;;;5045483;28;20260;-64
2023/07/20 02:45:00;;;;;;;2.50;1.03;;;;;;;;;;5037796;28;20207;-64
2023/07/20 02:47:27;;;;;;;4.57;1.10;;;;;;;;;;5037921;28;20260;-64
2023/07/20 02:49:55;;;;;;;0.63;0.63;;;;;;;;;;5044072;28;20230;-64
2023/07/20 02:52:24;;;;;;;0.80;0.80;;;;;;;;;;5057611;28;20744;-65
2023/07/20 02:54:52;;;;;;;0.70;0.70;;;;;;;;;;5057674;28;20210;-64
2023/07/20 02:57:19;;;;;;;1.10;0.90;;;;;;;;;;5057640;28;20202;-65
2023/07/20 02:59:48;;;;;;;1.80;0.90;;;;;;;;;;5049842;28;20678;-64
2023/07/20 03:02:16;;;;;;;1.13;1.03;;;;;;;;;;5037390;28;20264;-64
2023/07/20 03:04:44;;;;;;;2.13;1.10;;;;;;;;;;5039361;28;20207;-65
2023/07/20 03:07:12;;;;;;;1.50;0.77;;;;;;;;;;5041423;28;20223;-65
2023/07/20 03:09:40;;;;;;;1.03;0.93;;;;;;;;;;5041844;28;20222;-64
2023/07/20 03:12:09;;;;;;;1.90;0.80;;;;;;;;;;5041619;28;20210;-65
2023/07/20 03:14:36;;;;;;;3.47;1.20;;;;;;;;;;5041500;28;20230;-65
2023/07/20 03:17:06;;;;;;;2.13;1.00;;;;;;;;;;5041281;28;20272;-64
2023/07/20 03:19:34;;;;;;;1.87;0.80;;;;;;;;;;5049856;28;20645;-64
2023/07/20 03:22:02;;;;;;;0.87;0.73;;;;;;;;;;5060998;28;20215;-65
2023/07/20 03:24:30;;;;;;;0.90;0.90;;;;;;;;;;5061407;28;20206;-65
2023/07/20 03:26:57;;;;;;;0.80;0.80;;;;;;;;;;5061319;28;20648;-65
2023/07/20 03:29:25;;;;;;;1.87;0.90;;;;;;;;;;5049840;28;20207;-65
2023/07/20 03:31:53;;;;;;;1.17;0.80;;;;;;;;;;5040966;28;20299;-64
2023/07/20 03:34:22;;;;;;;1.30;0.80;;;;;;;;;;5040951;28;20239;-65
2023/07/20 03:36:50;;;;;;;2.60;1.07;;;;;;;;;;5040805;28;20204;-65
2023/07/20 03:39:17;;;;;;;4.03;1.10;;;;;;;;;;5040854;28;20636;-65
2023/07/20 03:41:45;;;;;;;6.87;1.40;;;;;;;;;;5053195;28;20303;-65
2023/07/20 03:44:13;;;;;;;2.63;1.00;;;;;;;;;;5041066;28;20250;-65
2023/07/20 03:46:41;;;;;;;1.53;1.10;;;;;;;;;;5040951;28;20739;-65
2023/07/20 03:49:08;;;;;;;1.00;1.00;;;;;;;;;;5040972;28;20207;-64
2023/07/20 03:51:38;;;;;;;0.80;0.80;;;;;;;;;;5040339;28;20289;-65
2023/07/20 03:54:05;;;;;;;1.67;1.17;;;;;;;;;;5040773;28;20225;-65
2023/07/20 03:56:35;;;;;;;2.33;1.00;;;;;;;;;;5040785;28;20208;-65
2023/07/20 03:59:03;;;;;;;3.40;1.20;;;;;;;;;;5041920;28;20217;-65
2023/07/20 04:01:34;;;;;;;1.60;1.20;;;;;;;;;;5040461;28;20234;-65
2023/07/20 04:04:01;;;;;;;2.70;1.30;;;;;;;;;;5040410;28;20205;-65
2023/07/20 04:06:29;;;;;;;1.57;1.30;;;;;;;;;;5040273;28;20210;-65
2023/07/20 04:08:58;;;;;;;3.50;1.23;;;;;;;;;;5040298;28;20213;-65
2023/07/20 04:11:26;;;;;;;2.83;1.30;;;;;;;;;;5040432;28;20315;-65
2023/07/20 04:13:55;;;;;;;3.00;1.13;;;;;;;;;;5040382;28;20316;-64
2023/07/20 04:16:23;;;;;;;1.73;1.50;;;;;;;;;;5039977;28;20209;-65
2023/07/20 04:18:52;;;;;;;1.30;1.20;;;;;;;;;;5042803;28;20248;-65
2023/07/20 04:21:19;;;;;;;2.07;1.50;;;;;;;;;;5059951;28;20242;-65
2023/07/20 04:23:47;;;;;;;2.83;1.40;;;;;;;;;;5059984;28;20233;-65
2023/07/20 04:26:16;;;;;;;1.63;1.10;;;;;;;;;;5060316;28;20299;-64
2023/07/20 04:28:44;;;;;;;2.60;1.20;;;;;;;;;;5054574;28;20213;-65
2023/07/20 04:31:12;;;;;;;1.27;1.20;;;;;;;;;;5040158;28;20231;-65
2023/07/20 04:33:40;;;;;;;2.03;1.17;;;;;;;;;;5039668;28;20284;-63
2023/07/20 04:36:09;;;;;;;1.30;1.20;;;;;;;;;;5039825;28;20210;-63
2023/07/20 04:38:36;;;;;;;1.40;1.17;;;;;;;;;;5046616;28;20236;-65
2023/07/20 04:41:04;;;;;;;1.40;1.30;;;;;;;;;;5059215;28;20311;-64
2023/07/20 04:43:33;;;;;;;1.10;1.00;;;;;;;;;;5039789;28;20625;-64
2023/07/20 04:46:01;;;;;;;3.23;1.20;;;;;;;;;;5039907;28;20322;-64
2023/07/20 04:48:29;;;;;;;0.80;0.80;;;;;;;;;;5039957;28;20207;-64
2023/07/20 04:50:57;;;;;;;1.00;0.80;;;;;;;;;;5039194;28;20277;-65
2023/07/20 04:53:24;;;;;;;1.33;1.00;;;;;;;;;;5039690;28;20569;-64
2023/07/20 04:55:54;;;;;;;1.90;1.20;;;;;;;;;;5039711;28;20226;-65
2023/07/20 04:58:22;;;;;;;1.30;1.20;;;;;;;;;;5039705;28;20245;-64
2023/07/20 05:00:52;;;;;;;0.83;0.83;;;;;;;;;;5041612;28;20231;-65
2023/07/20 05:03:19;;;;;;;2.33;1.60;;;;;;;;;;5039307;28;20238;-64
2023/07/20 05:05:48;;;;;;;6.23;2.77;;;;;;;;;;5050967;28;20208;-64
2023/07/20 05:08:17;;;;;;;1.33;1.23;;;;;;;;;;5058877;28;20208;-65
2023/07/20 05:10:44;;;;;;;3.07;1.50;;;;;;;;;;5041787;28;20259;-62
2023/07/20 05:13:12;;;;;;;2.97;2.43;;;;;;;;;;5039067;28;20280;-65
2023/07/20 05:15:40;;;;;;;2.43;1.33;;;;;;;;;;5038995;28;20634;-64
2023/07/20 05:18:09;;;;;;;7.80;1.60;;;;;;;;;;5039902;28;20237;-65
2023/07/20 05:20:37;;;;;;;3.43;1.93;;;;;;;;;;5056112;28;20228;-64
2023/07/20 05:23:05;;;;;;;1.93;1.17;;;;;;;;;;5059004;28;20204;-65
2023/07/20 05:25:33;;;;;;;1.03;0.90;;;;;;;;;;5059062;28;20212;-64
2023/07/20 05:28:01;;;;;;;2.67;1.60;;;;;;;;;;5058167;28;20203;-65
2023/07/20 05:30:29;;;;;;;2.07;1.27;;;;;;;;;;5038782;28;20224;-64
2023/07/20 05:33:13;;;;;;;1.10;1.00;;;;;;;;;;5038844;28;20290;-64
2023/07/20 05:35:48;;;;;;;2.87;1.20;;;;;;;;;;5038153;28;20300;-65
2023/07/20 05:38:23;;;;;;;0.97;0.80;;;;;;;;;;5038616;28;20240;-65
2023/07/20 05:41:00;;;;;;;7.77;1.80;;;;;;;;;;5049886;28;20709;-65
2023/07/20 05:43:28;;;;;;;1.37;1.27;;;;;;;;;;5038524;28;20232;-65
2023/07/20 05:45:55;;;;;;;2.03;1.23;;;;;;;;;;5038931;28;20208;-65
2023/07/20 05:48:24;;;;;;;4.63;1.37;;;;;;;;;;5047746;28;20293;-65
2023/07/20 05:50:53;;;;;;;4.20;1.47;;;;;;;;;;5065644;28;20307;-64
2023/07/20 05:53:21;;;;;;;2.33;1.10;;;;;;;;;;5069680;28;20641;-65
2023/07/20 05:55:52;;;;;;;3.00;1.07;;;;;;;;;;5064530;28;20234;-64
2023/07/20 05:58:20;;;;;;;6.13;1.30;;;;;;;;;;5068701;28;20305;-65
2023/07/20 06:00:48;;;;;;;3.30;1.13;;;;;;;;;;5068392;28;20232;-64
2023/07/20 06:03:17;;;;;;;3.70;1.10;;;;;;;;;;5054423;28;20299;-65
2023/07/20 06:05:46;;;;;;;1.50;1.00;;;;;;;;;;5041916;28;20589;-65
2023/07/20 06:08:15;;;;;;;1.97;1.33;;;;;;;;;;5054111;28;20546;-64
2023/07/20 06:10:43;;;;;;;1.93;1.30;;;;;;;;;;5042083;28;20230;-65
2023/07/20 06:13:12;;;;;;;2.30;1.10;;;;;;;;;;5037981;28;20209;-64
2023/07/20 06:15:41;;;;;;;2.93;1.43;;;;;;;;;;5038050;28;20298;-64
2023/07/20 06:18:08;;;;;;;1.57;0.90;;;;;;;;;;5038065;28;20293;-64
2023/07/20 06:20:36;;;;;;;2.73;1.20;;;;;;;;;;5057174;28;20279;-64
2023/07/20 06:23:04;;;;;;;1.10;1.00;;;;;;;;;;5048840;28;20241;-64
2023/07/20 06:25:33;;;;;;;4.60;1.30;;;;;;;;;;5050269;28;20207;-64
2023/07/20 06:28:01;;;;;;;1.27;1.13;;;;;;;;;;5050658;28;20270;-64
2023/07/20 06:30:29;;;;;;;3.00;1.40;;;;;;;;;;5047637;28;20221;-64
2023/07/20 06:32:57;;;;;;;2.80;1.00;;;;;;;;;;5037416;28;20243;-64
2023/07/20 06:35:25;;;;;;;2.73;1.17;;;;;;;;;;5037238;28;20230;-63
2023/07/20 06:37:53;;;;;;;1.87;1.20;;;;;;;;;;5043634;28;20677;-63
2023/07/20 06:40:22;;;;;;;1.17;1.00;;;;;;;;;;5044043;28;20232;-63
2023/07/20 06:42:54;;;;;;;4.73;1.23;;;;;;;;;;5041953;28;20214;-64
2023/07/20 06:45:24;;;;;;;0.93;0.93;;;;;;;;;;5037694;28;20261;-64
2023/07/20 06:47:52;;;;;;;3.10;1.40;;;;;;;;;;5037462;28;20207;-64
2023/07/20 06:50:20;;;;;;;1.00;0.80;;;;;;;;;;5064268;28;20280;-64
2023/07/20 06:52:48;;;;;;;1.17;1.13;;;;;;;;;;5064344;28;20197;-64
2023/07/20 06:55:16;;;;;;;0.90;0.87;;;;;;;;;;5063549;28;20223;-63
2023/07/20 06:57:50;;;;;;;7.47;1.43;;;;;;;;;;5062749;28;20648;-64
2023/07/20 07:00:20;;;;;;;4.63;2.70;;;;;;;;;;5063514;28;20240;-62
2023/07/20 07:02:47;;;;;;;0.73;0.73;;;;;;;;;;5037861;28;20203;-64
2023/07/20 07:05:18;;;;;;;1.67;1.00;;;;;;;;;;5037391;28;20201;-64
2023/07/20 07:07:48;;;;;;;5.80;1.27;;;;;;;;;;5057241;28;20207;-64
2023/07/20 07:10:16;;;;;;;3.00;1.30;;;;;;;;;;5062804;28;20224;-64
2023/07/20 07:12:44;;;;;;;3.47;1.20;;;;;;;;;;5061379;28;20195;-64
2023/07/20 07:15:12;;;;;;;4.37;1.43;;;;;;;;;;5058987;28;20218;-64
2023/07/20 07:17:43;;;;;;;3.30;1.27;;;;;;;;;;5062416;28;20203;-64
2023/07/20 07:20:11;;;;;;;4.93;1.53;;;;;;;;;;5054692;28;20223;-64
2023/07/20 07:22:46;;;;;;;2.60;1.50;;;;;;;;;;5046815;28;20214;-64
2023/07/20 07:25:14;;;;;;;3.73;1.13;;;;;;;;;;5037265;28;20671;-63
2023/07/20 07:27:45;;;;;;;4.40;1.17;;;;;;;;;;5048290;28;20204;-63
2023/07/20 07:30:13;;;;;;;2.47;1.40;;;;;;;;;;5039466;28;20234;-63
2023/07/20 07:32:43;;;;;;;4.93;0.97;;;;;;;;;;5046047;28;20745;-64
2023/07/20 07:35:11;;;;;;;3.60;1.50;;;;;;;;;;5049242;28;20266;-63
2023/07/20 07:37:39;;;;;;;1.17;0.93;;;;;;;;;;5040588;28;20258;-63
2023/07/20 07:40:19;;;;;;;1.20;1.10;;;;;;;;;;5055976;28;20708;-63
2023/07/20 07:42:47;;;;;;;2.93;1.23;;;;;;;;;;5042435;28;20217;-65
2023/07/20 07:45:16;;;;;;;2.90;1.30;;;;;;;;;;5037357;28;20337;-65
2023/07/20 07:47:45;;;;;;;3.03;1.37;;;;;;;;;;5037140;28;20211;-63
2023/07/20 07:50:13;;;;;;;2.43;1.10;;;;;;;;;;5051211;28;20271;-65
2023/07/20 07:52:41;;;;;;;2.77;1.30;;;;;;;;;;5044551;28;20214;-65
2023/07/20 07:55:08;;;;;;;2.30;1.03;;;;;;;;;;5050643;28;20230;-64
2023/07/20 07:57:36;;;;;;;2.80;1.23;;;;;;;;;;5040590;28;20681;-63
2023/07/20 08:00:05;;;;;;;1.10;0.90;;;;;;;;;;5050527;28;20222;-65
2023/07/20 08:02:33;;;;;;;4.37;1.80;;;;;;;;;;5066681;28;20199;-65
2023/07/20 08:05:03;;;;;;;1.40;1.23;;;;;;;;;;5068402;28;20205;-64
2023/07/20 08:07:30;;;;;;;1.93;1.30;;;;;;;;;;5063916;28;20201;-65
2023/07/20 08:09:58;;;;;;;1.83;1.10;;;;;;;;;;5062915;28;20234;-65
2023/07/20 08:12:26;;;;;;;2.90;1.10;;;;;;;;;;5069644;28;20203;-65
2023/07/20 08:14:54;;;;;;;4.90;1.40;;;;;;;;;;5064331;28;20198;-65
2023/07/20 08:17:22;;;;;;;1.20;1.10;;;;;;;;;;5067526;28;20218;-64
2023/07/20 08:19:50;;;;;;;2.50;1.10;;;;;;;;;;5062119;28;20223;-64
2023/07/20 08:22:19;;;;;;;3.63;1.00;;;;;;;;;;5066517;28;20218;-63
2023/07/20 08:24:47;;;;;;;1.50;1.40;;;;;;;;;;5065697;28;20196;-65
2023/07/20 08:27:15;;;;;;;14.10;1.23;;;;;;;;;;5065899;28;20647;-65
2023/07/20 08:29:42;;;;;;;3.75;1.42;;;;;;;;;;5068034;28;20226;-65
2023/07/20 08:32:10;;;;;;;2.20;1.10;;;;;;;;;;5062777;28;20293;-65
2023/07/20 08:34:38;;;;;;;1.10;1.10;;;;;;;;;;5015889;28;20207;-64
2023/07/20 08:37:06;;;;;;;3.90;1.10;;;;;;;;;;5000464;28;20681;-64
2023/07/20 08:39:35;;;;;;;2.23;1.10;;;;;;;;;;5000736;28;20682;-64
2023/07/20 08:42:06;;;;;;;3.10;1.20;;;;;;;;;;5000479;28;20275;-65
2023/07/20 08:44:34;;;;;;;1.27;0.90;;;;;;;;;;5000394;28;20213;-65
2023/07/20 08:47:03;;;;;;;1.20;1.10;;;;;;;;;;5000143;28;20640;-64
2023/07/20 08:49:32;;;;;;;1.07;1.03;;;;;;;;;;5013016;28;20208;-64
2023/07/20 08:52:00;;;;;;;3.50;1.00;;;;;;;;;;5005957;28;20215;-65
2023/07/20 08:54:32;;;;;;;5.30;1.20;;;;;;;;;;5000479;28;20219;-65
2023/07/20 08:57:02;;;;;;;2.08;1.50;;;;;;;;;;5008471;28;20258;-65
2023/07/20 08:59:31;;;;;;;3.72;1.08;;;;;;;;;;5007052;28;20649;-65
2023/07/20 09:02:00;;;;;;;1.92;1.80;;;;;;;;;;5016819;28;20289;-65
2023/07/20 09:04:28;;;;;;;2.65;1.13;;;;;;;;;;5015623;28;20218;-65
2023/07/20 09:06:56;;;;;;;2.03;1.05;;;;;;;;;;5009889;28;20227;-65
2023/07/20 09:09:24;;;;;;;2.58;1.65;;;;;;;;;;5000051;28;20204;-65
2023/07/20 09:11:52;;;;;;;2.65;1.00;;;;;;;;;;5014142;28;20230;-65
2023/07/20 09:14:24;;;;;;;1.25;1.15;;;;;;;;;;5006565;28;20210;-65
2023/07/20 09:16:54;;;;;;;1.40;1.05;;;;;;;;;;5018940;28;20587;-65
2023/07/20 09:19:22;;;;;;;2.78;1.20;;;;;;;;;;5019430;28;20651;-65
2023/07/20 09:21:50;;;;;;;3.78;1.40;;;;;;;;;;5018934;28;20311;-65
2023/07/20 09:24:19;;;;;;;1.55;1.05;;;;;;;;;;5019319;28;20217;-65
2023/07/20 09:26:49;;;;;;;3.07;1.67;;;;;;;;;;5018827;28;20667;-64
2023/07/20 09:29:19;;;;;;;1.80;1.27;;;;;;;;;;5018958;28;20292;-65
2023/07/20 09:31:59;;;;;;;4.73;1.70;;;;;;;;;;5018948;28;20230;-64
2023/07/20 09:34:29;;;;;;;2.67;1.50;;;;;;;;;;5056071;28;20244;-65
2023/07/20 09:37:00;;;;;;;2.45;1.40;;;;;;;;;;5058518;28;20235;-65
2023/07/20 09:39:28;;;;;;;3.37;1.17;;;;;;;;;;5058648;28;20284;-65
2023/07/20 09:42:00;;;;;;;1.75;1.63;;;;;;;;;;5038513;28;20218;-64
2023/07/20 09:44:31;;;;;;;1.30;1.20;;;;;;;;;;5040612;28;20215;-65
2023/07/20 09:47:04;;;;;;;1.33;1.15;;;;;;;;;;5057327;28;20209;-65
2023/07/20 09:49:32;;;;;;;4.43;1.30;;;;;;;;;;5057842;28;20209;-64
2023/07/20 09:52:20;;;;;;;0.90;0.90;;;;;;;;;;5057976;28;20702;-64
2023/07/20 09:54:51;;;;;;;2.35;1.38;;;;;;;;;;5058635;28;20216;-64
2023/07/20 09:57:20;;;;;;;5.10;1.60;;;;;;;;;;5049716;28;20248;-64
2023/07/20 09:59:47;;;;;;;2.70;2.10;;;;;;;;;;5049973;28;20231;-64
2023/07/20 10:02:20;;;;;;;2.35;1.40;;;;;;;;;;5048914;28;20205;-64
2023/07/20 10:04:48;;;;;;;2.38;1.25;;;;;;;;;;5056795;28;20244;-64
2023/07/20 10:07:17;;;;;;;1.53;1.27;;;;;;;;;;5041462;28;20242;-65
2023/07/20 10:09:46;;;;;;;2.00;1.37;;;;;;;;;;5047923;28;20200;-65
2023/07/20 10:12:14;;;;;;;1.87;1.37;;;;;;;;;;5054868;28;20206;-65
2023/07/20 10:14:47;;;;;;;3.80;1.20;;;;;;;;;;5038717;28;20234;-66
2023/07/20 10:17:16;;;;;;;2.95;1.48;;;;;;;;;;5039305;28;20231;-66
2023/07/20 10:19:48;;;;;;;1.67;1.38;;;;;;;;;;5055747;28;20303;-66
2023/07/20 10:22:20;;;;;;;1.48;1.38;;;;;;;;;;5043854;28;20233;-66
2023/07/20 10:24:48;;;;;;;3.40;1.23;;;;;;;;;;5038163;28;20214;-65
2023/07/20 10:27:16;;;;;;;1.90;1.42;;;;;;;;;;5038076;28;20210;-65
2023/07/20 10:29:43;;;;;;;6.78;1.50;;;;;;;;;;5038054;28;20242;-66
2023/07/20 10:32:11;;;;;;;3.10;1.65;;;;;;;;;;5037669;28;20213;-65
2023/07/20 10:34:39;;;;;;;5.43;1.43;;;;;;;;;;5007266;28;20209;-65
2023/07/20 10:37:09;;;;;;;3.03;1.40;;;;;;;;;;5017676;28;20234;-65
2023/07/20 10:39:37;;;;;;;2.50;1.10;;;;;;;;;;5017842;28;20310;-65
2023/07/20 10:42:08;;;;;;;4.20;1.40;;;;;;;;;;5018197;28;20668;-65
2023/07/20 10:44:37;;;;;;;5.00;1.80;;;;;;;;;;5011119;28;20215;-65
2023/07/20 10:47:09;;;;;;;1.67;1.30;;;;;;;;;;5012115;28;20200;-65
2023/07/20 10:49:54;;;;;;;2.50;1.40;;;;;;;;;;5015054;28;20221;-65
2023/07/20 10:52:23;;;;;;;2.20;1.45;;;;;;;;;;5018345;28;20270;-65
2023/07/20 10:54:50;;;;;;;1.73;1.50;;;;;;;;;;5015979;28;20254;-65
2023/07/20 10:57:29;;;;;;;2.50;1.58;;;;;;;;;;5013368;28;20236;-64
2023/07/20 11:00:11;;;;;;;2.22;1.25;;;;;;;;;;5013444;28;20238;-65
2023/07/20 11:02:43;;;;;;;2.65;1.50;;;;;;;;;;5018026;28;20217;-66
2023/07/20 11:05:26;;;;;;;1.50;1.40;;;;;;;;;;5016166;28;20222;-66
2023/07/20 11:07:55;;;;;;;4.07;1.90;;;;;;;;;;5017716;28;20578;-65
2023/07/20 11:10:23;;;;;;;3.30;1.30;;;;;;;;;;5017677;28;20240;-65
2023/07/20 11:13:06;;;;;;;1.65;1.25;;;;;;;;;;5017601;28;20750;-65
2023/07/20 11:15:45;;;;;;;2.13;1.25;;;;;;;;;;5014496;28;20215;-65
2023/07/20 11:18:15;;;;;;;1.85;1.40;;;;;;;;;;5016927;28;20228;-65
2023/07/20 11:20:43;;;;;;;2.78;1.50;;;;;;;;;;5012551;28;20227;-65
2023/07/20 11:23:12;;;;;;;2.22;1.40;;;;;;;;;;5017211;28;20218;-65
2023/07/20 11:25:40;;;;;;;2.35;1.55;;;;;;;;;;5018803;28;20648;-65
2023/07/20 11:28:09;;;;;;;1.83;1.23;;;;;;;;;;5027693;28;20284;-65
2023/07/20 11:30:37;;;;;;;2.50;1.23;;;;;;;;;;5024098;28;20223;-65
2023/07/20 11:33:05;;;;;;;2.88;1.05;;;;;;;;;;5041495;28;20318;-65
2023/07/20 11:35:36;;;;;;;1.20;1.10;;;;;;;;;;5069136;28;20208;-65
2023/07/20 11:38:04;;;;;;;2.65;1.00;;;;;;;;;;5069352;28;20222;-65
2023/07/20 11:40:33;;;;;;;2.30;1.27;;;;;;;;;;5056451;28;20230;-63
2023/07/20 11:43:01;;;;;;;1.30;1.20;;;;;;;;;;5040604;28;20299;-64
2023/07/20 11:45:33;;;;;;;4.13;1.50;;;;;;;;;;5063435;28;20645;-63
2023/07/20 11:48:01;;;;;;;1.20;1.10;;;;;;;;;;5073303;28;20201;-63
2023/07/20 11:50:29;;;;;;;5.00;1.23;;;;;;;;;;5040448;28;20875;-63
2023/07/20 11:52:56;;;;;;;1.97;1.50;;;;;;;;;;5042715;28;20205;-64
2023/07/20 11:55:24;;;;;;;2.13;1.10;;;;;;;;;;5046286;28;20207;-65
2023/07/20 11:58:03;;;;;;;1.50;1.30;;;;;;;;;;5053245;28;20224;-65
2023/07/20 12:00:31;;;;;;;1.47;1.13;;;;;;;;;;5061586;28;20226;-66
2023/07/20 12:02:59;;;;;;;1.57;1.20;;;;;;;;;;5071288;28;20215;-65
2023/07/20 12:05:27;;;;;;;2.97;1.40;;;;;;;;;;5052689;28;20199;-64
2023/07/20 12:07:55;;;;;;;2.23;1.33;;;;;;;;;;5043567;28;20207;-65
2023/07/20 12:10:27;;;;;;;4.40;1.40;;;;;;;;;;5050674;28;20215;-64
2023/07/20 12:12:55;;;;;;;2.42;1.33;;;;;;;;;;5050388;28;20236;-65
2023/07/20 12:15:26;;;;;;;2.40;1.17;;;;;;;;;;5040133;28;20213;-65
2023/07/20 12:17:55;;;;;;;1.20;1.10;;;;;;;;;;5046831;28;20224;-65
2023/07/20 12:20:28;;;;;;;3.50;1.60;;;;;;;;;;5040034;28;20741;-65
2023/07/20 12:22:57;;;;;;;2.53;1.30;;;;;;;;;;5055224;28;20966;-65
2023/07/20 12:25:33;;;;;;;3.03;1.60;;;;;;;;;;5040490;28;20232;-65
2023/07/20 12:28:02;;;;;;;3.83;2.08;;;;;;;;;;5040155;28;20221;-65
2023/07/20 12:30:31;;;;;;;1.85;1.15;;;;;;;;;;5040098;28;20234;-65
2023/07/20 12:32:59;;;;;;;2.10;1.40;;;;;;;;;;5039677;28;20326;-65
2023/07/20 12:35:27;;;;;;;1.23;1.10;;;;;;;;;;5039563;28;20208;-64
2023/07/20 12:37:54;;;;;;;3.17;1.80;;;;;;;;;;5042783;28;20235;-65
2023/07/20 12:40:22;;;;;;;1.10;1.10;;;;;;;;;;5059870;28;20586;-65
2023/07/20 12:42:50;;;;;;;4.20;1.20;;;;;;;;;;5044030;28;20302;-65
2023/07/20 12:45:18;;;;;;;2.78;1.15;;;;;;;;;;5039771;28;20580;-65
2023/07/20 12:47:47;;;;;;;2.30;1.20;;;;;;;;;;5068160;28;20208;-65
2023/07/20 12:50:15;;;;;;;3.47;1.40;;;;;;;;;;5066335;28;20229;-65
2023/07/20 12:52:43;;;;;;;7.57;1.10;;;;;;;;;;5066399;28;20208;-65
2023/07/20 12:55:11;;;;;;;0.93;0.88;;;;;;;;;;5065623;28;20211;-65
2023/07/20 12:57:39;;;;;;;1.45;1.08;;;;;;;;;;5063217;28;20293;-65
2023/07/20 13:00:08;;;;;;;1.58;1.20;;;;;;;;;;5065929;28;20218;-65
2023/07/20 13:02:36;;;;;;;1.17;1.13;;;;;;;;;;5069036;28;20201;-65
2023/07/20 13:05:06;;;;;;;1.90;1.30;;;;;;;;;;5067670;28;20701;-65
2023/07/20 13:07:34;;;;;;;0.95;0.95;;;;;;;;;;5064903;28;20237;-66
2023/07/20 13:10:05;;;;;;;5.07;1.30;;;;;;;;;;5067229;28;20231;-67
2023/07/20 13:12:35;;;;;;;2.95;1.17;;;;;;;;;;5042780;28;20242;-65
2023/07/20 13:15:05;;;;;;;1.67;1.10;;;;;;;;;;5037487;28;20247;-65
2023/07/20 13:17:33;;;;;;;2.30;1.30;;;;;;;;;;5037196;28;20610;-65
2023/07/20 13:20:01;;;;;;;2.42;1.80;;;;;;;;;;5036827;28;20231;-66
2023/07/20 13:22:30;;;;;;;3.95;1.55;;;;;;;;;;5037274;28;20274;-65
2023/07/20 13:24:58;;;;;;;0.98;0.90;;;;;;;;;;5037689;28;20249;-66
2023/07/20 13:27:26;;;;;;;1.95;1.30;;;;;;;;;;5039225;28;20204;-66
2023/07/20 13:29:54;;;;;;;1.80;1.08;;;;;;;;;;5039337;28;20265;-65
2023/07/20 13:32:23;;;;;;;1.75;1.23;;;;;;;;;;5038993;28;20292;-66
2023/07/20 13:34:51;;;;;;;2.13;1.30;;;;;;;;;;5038800;28;20712;-66
2023/07/20 13:37:19;;;;;;;6.38;1.30;;;;;;;;;;5038624;28;20638;-66
2023/07/20 13:39:50;;;;;;;1.85;1.27;;;;;;;;;;5040910;28;20690;-66
2023/07/20 13:42:18;;;;;;;2.75;1.30;;;;;;;;;;5038975;28;20207;-66
2023/07/20 13:44:47;;;;;;;3.20;1.25;;;;;;;;;;5038670;28;20208;-67
2023/07/20 13:47:15;;;;;;;1.27;1.13;;;;;;;;;;5038728;28;20206;-66
2023/07/20 13:49:46;;;;;;;2.17;1.40;;;;;;;;;;5037958;28;20203;-66
2023/07/20 13:52:15;;;;;;;1.83;1.35;;;;;;;;;;5044559;28;20231;-67
2023/07/20 13:54:45;;;;;;;1.45;1.17;;;;;;;;;;5045823;28;20211;-66
2023/07/20 13:57:20;;;;;;;2.33;1.30;;;;;;;;;;5045897;28;20655;-66
2023/07/20 13:59:48;;;;;;;1.65;1.30;;;;;;;;;;5056536;28;20321;-64
2023/07/20 14:02:18;;;;;;;1.67;1.30;;;;;;;;;;5038745;28;20614;-66
2023/07/20 14:04:49;;;;;;;1.13;1.02;;;;;;;;;;5038269;28;20239;-64
2023/07/20 14:07:37;;;;;;;2.03;1.10;;;;;;;;;;5049603;28;20225;-67
2023/07/20 14:10:05;;;;;;;2.03;1.35;;;;;;;;;;5051468;28;20234;-63
2023/07/20 14:12:38;;;;;;;1.55;1.35;;;;;;;;;;5047789;28;20660;-63
2023/07/20 14:15:06;;;;;;;2.80;1.10;;;;;;;;;;5038172;28;20207;-64
2023/07/20 14:17:36;;;;;;;1.58;1.20;;;;;;;;;;5040166;28;20213;-67
2023/07/20 14:20:09;;;;;;;2.58;2.30;;;;;;;;;;5037470;28;20856;-67
2023/07/20 14:22:41;;;;;;;1.92;1.20;;;;;;;;;;5037819;28;20217;-65
2023/07/20 14:25:09;;;;;;;2.75;1.42;;;;;;;;;;5038033;28;20231;-67
2023/07/20 14:27:39;;;;;;;1.30;1.20;;;;;;;;;;5040915;28;20637;-65
2023/07/20 14:30:08;;;;;;;6.20;1.10;;;;;;;;;;5056216;28;20588;-65
2023/07/20 14:32:36;;;;;;;5.13;1.45;;;;;;;;;;5057564;28;20238;-68
2023/07/20 14:35:07;;;;;;;2.20;1.38;;;;;;;;;;5057446;28;20203;-67
2023/07/20 14:37:37;;;;;;;4.35;3.33;;;;;;;;;;5057698;28;20210;-66
2023/07/20 14:40:06;;;;;;;3.55;1.23;;;;;;;;;;5055189;28;20241;-69
2023/07/20 14:42:36;;;;;;;1.58;1.02;;;;;;;;;;5037523;28;20210;-68
2023/07/20 14:45:06;;;;;;;1.23;1.13;;;;;;;;;;5037536;28;20294;-66
2023/07/20 14:47:35;;;;;;;1.45;1.13;;;;;;;;;;5053448;28;20240;-67
2023/07/20 14:50:03;;;;;;;1.35;1.10;;;;;;;;;;5057090;28;20223;-65
2023/07/20 14:52:31;;;;;;;2.47;1.50;;;;;;;;;;5057282;28;20206;-66
2023/07/20 14:54:58;;;;;;;1.90;1.55;;;;;;;;;;5042272;28;20218;-69